Time;durP1;ratioP1;P1;durP2;ratioP2;P2;SDS_P1;SDS_P2;PMS_P1;PMS_P2;Temp;Humidity;BMP_temperature;BMP_pressure;BME280_temperature;BME280_humidity;BME280_pressure;Samples;Min_cycle;Max_cycle;Signal;HPM_P1;HPM_P2
2023/06/08 00:00:50;;;;;;;7.23;3.80;;;27.80;40.60;;;;;;5020913;28;20518;-78
2023/06/08 00:03:18;;;;;;;9.50;4.03;;;27.70;40.60;;;;;;5010724;28;20473;-78
2023/06/08 00:05:47;;;;;;;6.47;3.90;;;27.70;40.60;;;;;;5005367;28;20475;-78
2023/06/08 00:08:15;;;;;;;7.47;3.90;;;27.70;40.70;;;;;;5011502;28;20441;-78
2023/06/08 00:10:43;;;;;;;5.87;3.80;;;27.70;40.80;;;;;;5009228;28;20539;-78
2023/06/08 00:13:11;;;;;;;5.07;4.30;;;27.60;40.70;;;;;;5003066;28;21041;-78
2023/06/08 00:15:41;;;;;;;5.20;3.60;;;27.60;40.90;;;;;;5006713;28;20524;-78
2023/06/08 00:18:09;;;;;;;7.83;4.17;;;27.60;40.80;;;;;;5002775;28;20499;-78
2023/06/08 00:20:39;;;;;;;4.27;3.80;;;27.60;40.90;;;;;;5011082;28;20423;-77
2023/06/08 00:23:07;;;;;;;6.23;4.10;;;27.60;40.80;;;;;;5003691;28;20501;-78
2023/06/08 00:25:35;;;;;;;7.80;4.20;;;27.60;41.00;;;;;;5010994;28;20454;-78
2023/06/08 00:28:04;;;;;;;7.80;4.20;;;27.60;41.10;;;;;;5010991;28;20415;-77
2023/06/08 00:30:32;;;;;;;5.37;3.90;;;27.60;41.00;;;;;;5009211;28;20452;-78
2023/06/08 00:33:01;;;;;;;5.47;4.20;;;27.50;41.00;;;;;;5011287;28;20547;-77
2023/06/08 00:35:30;;;;;;;3.60;3.27;;;27.50;41.20;;;;;;5010255;28;20426;-77
2023/06/08 00:37:58;;;;;;;5.10;4.00;;;27.50;41.00;;;;;;5009065;28;21005;-78
2023/06/08 00:40:26;;;;;;;6.40;4.20;;;27.50;41.20;;;;;;5003133;28;20468;-77
2023/06/08 00:42:54;;;;;;;6.17;3.40;;;27.50;41.20;;;;;;5010676;28;20467;-78
2023/06/08 00:45:22;;;;;;;6.07;3.90;;;27.50;41.20;;;;;;5010716;28;20420;-77
2023/06/08 00:47:49;;;;;;;6.47;4.10;;;27.50;41.30;;;;;;5014855;28;20524;-78
2023/06/08 00:50:20;;;;;;;7.67;4.20;;;27.50;41.20;;;;;;5014617;28;20475;-78
2023/06/08 00:52:49;;;;;;;6.10;4.27;;;27.50;41.20;;;;;;5014429;28;20435;-77
2023/06/08 00:55:19;;;;;;;7.70;4.03;;;27.50;41.30;;;;;;5007550;28;20478;-78
2023/06/08 00:57:47;;;;;;;3.70;3.37;;;27.50;41.40;;;;;;5013904;28;20447;-78
2023/06/08 01:00:16;;;;;;;5.60;4.00;;;27.50;41.30;;;;;;5012073;28;20452;-78
2023/06/08 01:02:44;;;;;;;5.73;3.67;;;27.50;41.40;;;;;;5014011;28;20953;-78
2023/06/08 01:05:12;;;;;;;4.53;3.67;;;27.50;41.40;;;;;;4997981;28;20506;-77
2023/06/08 01:07:49;;;;;;;6.07;3.83;;;27.50;41.40;;;;;;5014001;28;20425;-77
2023/06/08 01:10:19;;;;;;;7.43;3.50;;;27.50;41.40;;;;;;5014191;28;20423;-77
2023/06/08 01:12:50;;;;;;;6.93;4.00;;;27.50;41.40;;;;;;5009394;28;20446;-77
2023/06/08 01:15:27;;;;;;;4.80;3.63;;;27.40;41.30;;;;;;5011226;28;20468;-77
2023/06/08 01:17:57;;;;;;;6.30;3.90;;;27.40;41.40;;;;;;5012730;28;20472;-77
2023/06/08 01:20:34;;;;;;;5.70;3.43;;;27.40;41.50;;;;;;5014008;28;20454;-77
2023/06/08 01:23:16;;;;;;;4.13;3.50;;;27.40;41.50;;;;;;5014340;28;20435;-79
2023/06/08 01:25:46;;;;;;;4.27;3.90;;;27.40;41.40;;;;;;5002699;28;20489;-78
2023/06/08 01:28:15;;;;;;;3.80;3.50;;;27.40;41.50;;;;;;5004208;28;20519;-76
2023/06/08 01:30:44;;;;;;;3.77;3.40;;;27.40;41.60;;;;;;5002826;28;20424;-78
2023/06/08 01:33:13;;;;;;;3.93;3.50;;;27.40;41.50;;;;;;5006815;28;20551;-79
2023/06/08 01:35:42;;;;;;;5.00;3.93;;;27.30;41.50;;;;;;5014828;28;20474;-78
2023/06/08 01:38:13;;;;;;;3.90;3.47;;;27.30;41.60;;;;;;5011773;28;20472;-78
2023/06/08 01:40:45;;;;;;;6.17;4.07;;;27.40;41.50;;;;;;5014130;28;20440;-79
2023/06/08 01:43:13;;;;;;;7.77;3.90;;;27.30;41.60;;;;;;5011213;28;20486;-78
2023/06/08 01:45:44;;;;;;;3.97;3.53;;;27.30;41.60;;;;;;5003732;28;20428;-78
2023/06/08 01:48:12;;;;;;;9.90;3.73;;;27.30;41.60;;;;;;5008465;28;20411;-79
2023/06/08 01:50:40;;;;;;;5.17;3.60;;;27.30;41.60;;;;;;5014143;28;20414;-79
2023/06/08 01:53:08;;;;;;;4.57;3.30;;;27.30;41.70;;;;;;5011477;28;20499;-78
2023/06/08 01:55:36;;;;;;;4.20;3.47;;;27.30;41.70;;;;;;5003251;28;20472;-78
2023/06/08 01:58:06;;;;;;;3.77;3.40;;;27.30;41.80;;;;;;5009916;28;20444;-78
2023/06/08 02:00:33;;;;;;;3.73;3.40;;;27.20;41.70;;;;;;5006021;28;20494;-78
2023/06/08 02:03:02;;;;;;;5.83;3.80;;;27.30;41.80;;;;;;5013582;28;20460;-78
2023/06/08 02:05:29;;;;;;;3.67;3.37;;;27.30;41.80;;;;;;5010525;28;20449;-78
2023/06/08 02:07:57;;;;;;;3.87;3.30;;;27.30;41.70;;;;;;5006693;28;20431;-78
2023/06/08 02:10:25;;;;;;;4.27;3.77;;;27.20;41.70;;;;;;5011536;28;20487;-78
2023/06/08 02:12:53;;;;;;;3.63;3.33;;;27.20;41.90;;;;;;5012858;28;20519;-78
2023/06/08 02:15:22;;;;;;;3.90;3.50;;;27.20;41.90;;;;;;5012156;28;20800;-79
2023/06/08 02:17:51;;;;;;;4.90;3.87;;;27.20;41.80;;;;;;5012936;28;20486;-78
2023/06/08 02:20:19;;;;;;;10.00;3.90;;;27.20;41.90;;;;;;5013491;28;20485;-79
2023/06/08 02:22:47;;;;;;;4.07;3.57;;;27.10;41.80;;;;;;5010127;28;20478;-78
2023/06/08 02:25:15;;;;;;;3.43;3.17;;;27.20;42.00;;;;;;5009961;28;20427;-78
2023/06/08 02:27:44;;;;;;;4.03;3.23;;;27.20;41.90;;;;;;5013443;28;20510;-78
2023/06/08 02:30:13;;;;;;;5.20;3.73;;;27.20;42.00;;;;;;5011635;28;20441;-78
2023/06/08 02:32:45;;;;;;;5.70;3.37;;;27.20;42.00;;;;;;5012552;28;20434;-78
2023/06/08 02:35:14;;;;;;;3.83;3.40;;;27.10;42.00;;;;;;5011644;28;20479;-78
2023/06/08 02:37:43;;;;;;;4.97;3.17;;;27.10;42.00;;;;;;5012741;28;20515;-78
2023/06/08 02:40:12;;;;;;;5.80;3.73;;;27.10;41.90;;;;;;5004923;28;20597;-78
2023/06/08 02:42:40;;;;;;;4.30;3.40;;;27.10;42.00;;;;;;5011120;28;20491;-78
2023/06/08 02:45:09;;;;;;;5.03;3.57;;;27.10;42.00;;;;;;5012458;28;20502;-78
2023/06/08 02:47:37;;;;;;;4.70;3.60;;;27.10;42.10;;;;;;5013336;28;20455;-76
2023/06/08 02:50:08;;;;;;;4.87;3.87;;;27.10;42.10;;;;;;5008274;28;20448;-78
2023/06/08 02:52:36;;;;;;;4.93;3.73;;;27.10;42.10;;;;;;5015087;28;20549;-78
2023/06/08 02:55:05;;;;;;;4.10;3.53;;;27.00;42.20;;;;;;5006323;28;20427;-78
2023/06/08 02:57:33;;;;;;;4.03;3.37;;;27.00;42.10;;;;;;5005193;28;21067;-78
2023/06/08 03:00:03;;;;;;;4.40;3.33;;;27.00;42.20;;;;;;5006317;28;20493;-78
2023/06/08 03:06:20;;;;;;;4.20;3.50;;;27.10;42.10;;;;;;4996747;28;20394;-78
2023/06/08 03:08:53;;;;;;;7.40;3.33;;;27.00;42.10;;;;;;5009289;28;20446;-78
2023/06/08 03:11:22;;;;;;;3.50;2.90;;;27.00;42.30;;;;;;5013138;28;20518;-79
2023/06/08 03:13:50;;;;;;;6.10;3.93;;;26.90;42.10;;;;;;5012275;28;20449;-79
2023/06/08 03:16:19;;;;;;;5.67;3.70;;;27.00;42.10;;;;;;5008426;28;20452;-79
2023/06/08 03:18:47;;;;;;;4.33;3.43;;;27.00;42.30;;;;;;5012123;28;20472;-79
2023/06/08 03:21:18;;;;;;;3.67;3.33;;;27.00;42.10;;;;;;5005320;28;20488;-79
2023/06/08 03:23:48;;;;;;;5.00;3.50;;;26.90;42.10;;;;;;5012395;28;20502;-78
2023/06/08 03:26:16;;;;;;;5.27;3.67;;;26.90;42.20;;;;;;5010659;28;20454;-77
2023/06/08 03:28:45;;;;;;;6.07;4.00;;;27.00;42.30;;;;;;5011617;28;20478;-77
2023/06/08 03:31:14;;;;;;;4.77;3.40;;;26.90;42.20;;;;;;5005370;28;20514;-77
2023/06/08 03:33:42;;;;;;;3.90;3.50;;;26.90;42.20;;;;;;5011576;28;20476;-78
2023/06/08 03:36:11;;;;;;;4.00;3.50;;;26.90;42.30;;;;;;5011365;28;20487;-78
2023/06/08 03:38:38;;;;;;;5.47;4.13;;;26.90;42.10;;;;;;5010864;28;20526;-79
2023/06/08 03:41:08;;;;;;;7.70;3.20;;;26.90;42.30;;;;;;5005616;28;20451;-77
2023/06/08 03:43:37;;;;;;;4.30;3.50;;;26.90;42.10;;;;;;5011208;28;20889;-77
2023/06/08 03:46:05;;;;;;;4.80;3.40;;;26.90;42.30;;;;;;5011030;28;20451;-78
2023/06/08 03:48:34;;;;;;;4.50;3.40;;;26.90;42.30;;;;;;5007703;28;20489;-78
2023/06/08 03:51:02;;;;;;;5.93;4.00;;;26.90;42.30;;;;;;5007210;28;20510;-78
2023/06/08 03:53:31;;;;;;;6.97;3.57;;;26.90;42.20;;;;;;5010346;28;20608;-78
2023/06/08 03:55:59;;;;;;;4.03;3.63;;;26.90;42.20;;;;;;5011252;28;20494;-77
2023/06/08 03:58:29;;;;;;;4.47;3.50;;;26.90;42.30;;;;;;5010171;28;20446;-78
2023/06/08 04:00:57;;;;;;;4.73;3.73;;;26.90;42.30;;;;;;5007279;28;20958;-78
2023/06/08 04:03:26;;;;;;;3.80;3.40;;;26.90;42.20;;;;;;5007886;28;20455;-78
2023/06/08 04:05:56;;;;;;;3.83;3.40;;;26.90;42.30;;;;;;4992908;28;20522;-78
2023/06/08 04:08:26;;;;;;;3.77;3.47;;;26.90;42.20;;;;;;5000801;28;20472;-76
2023/06/08 04:10:54;;;;;;;3.60;3.20;;;26.90;42.10;;;;;;5008577;28;20423;-77
2023/06/08 04:13:23;;;;;;;4.47;3.70;;;26.90;42.10;;;;;;5010142;28;20477;-78
2023/06/08 04:15:52;;;;;;;5.33;3.77;;;26.90;42.20;;;;;;5008177;28;20431;-78
2023/06/08 04:18:21;;;;;;;3.53;3.23;;;26.90;42.40;;;;;;5011908;28;20423;-78
2023/06/08 04:20:49;;;;;;;4.57;3.53;;;26.90;42.30;;;;;;5010211;28;20475;-78
2023/06/08 04:23:17;;;;;;;6.20;4.20;;;26.90;42.30;;;;;;5003682;28;20467;-78
2023/06/08 04:25:46;;;;;;;3.63;3.33;;;26.90;42.20;;;;;;5012361;28;20426;-78
2023/06/08 04:28:14;;;;;;;4.43;3.33;;;26.90;42.20;;;;;;5007166;28;20508;-78
2023/06/08 04:30:44;;;;;;;3.90;3.37;;;26.90;42.20;;;;;;5014861;28;20558;-78
2023/06/08 04:33:13;;;;;;;5.17;3.50;;;26.90;42.10;;;;;;5006411;28;20446;-78
2023/06/08 04:35:41;;;;;;;6.83;3.80;;;26.90;42.20;;;;;;5008918;28;20944;-77
2023/06/08 04:38:14;;;;;;;4.57;3.80;;;26.90;42.10;;;;;;5012669;28;20522;-78
2023/06/08 04:40:48;;;;;;;4.00;3.20;;;27.00;42.20;;;;;;5014369;28;20449;-78
2023/06/08 04:43:17;;;;;;;3.80;3.50;;;26.90;42.30;;;;;;5012288;28;20470;-77
2023/06/08 04:45:45;;;;;;;4.13;3.23;;;26.90;42.20;;;;;;5013758;28;20415;-78
2023/06/08 04:48:15;;;;;;;3.47;3.27;;;27.00;42.10;;;;;;5006684;28;20534;-78
2023/06/08 04:50:45;;;;;;;5.10;3.90;;;27.00;42.20;;;;;;5014532;28;20471;-77
2023/06/08 04:53:14;;;;;;;4.63;3.70;;;27.00;42.10;;;;;;4999221;28;20443;-78
2023/06/08 04:55:44;;;;;;;3.83;3.50;;;27.00;42.10;;;;;;5008209;28;20457;-78
2023/06/08 04:58:13;;;;;;;4.37;3.70;;;27.00;42.00;;;;;;5006547;28;20415;-77
2023/06/08 05:00:41;;;;;;;4.80;3.63;;;27.00;42.00;;;;;;5010390;28;20493;-77
2023/06/08 05:03:10;;;;;;;3.47;3.00;;;27.00;42.20;;;;;;5014041;28;20423;-78
2023/06/08 05:05:41;;;;;;;5.27;3.70;;;27.00;41.90;;;;;;5006238;28;20424;-78
2023/06/08 05:08:09;;;;;;;3.70;3.00;;;27.10;42.00;;;;;;5013732;28;20419;-76
2023/06/08 05:10:37;;;;;;;3.67;3.30;;;27.00;42.00;;;;;;5014043;28;20444;-78
2023/06/08 05:13:05;;;;;;;4.70;3.50;;;27.00;42.00;;;;;;5008890;28;20497;-78
2023/06/08 05:15:33;;;;;;;5.63;3.10;;;27.00;41.90;;;;;;5009193;28;20497;-78
2023/06/08 05:18:01;;;;;;;3.63;3.30;;;27.00;42.00;;;;;;5010613;28;20473;-77
2023/06/08 05:20:29;;;;;;;4.13;3.30;;;27.00;42.00;;;;;;5007743;28;20455;-78
2023/06/08 05:22:59;;;;;;;3.57;2.90;;;27.00;42.00;;;;;;5013536;28;20537;-78
2023/06/08 05:25:29;;;;;;;4.83;3.70;;;27.00;41.90;;;;;;5013873;28;20481;-79
2023/06/08 05:27:57;;;;;;;5.80;3.50;;;27.00;41.90;;;;;;5009752;28;20430;-78
2023/06/08 05:30:26;;;;;;;4.73;3.23;;;27.00;42.00;;;;;;5007190;28;20441;-76
2023/06/08 05:32:55;;;;;;;4.93;3.50;;;27.00;41.90;;;;;;5012827;28;20469;-78
2023/06/08 05:35:24;;;;;;;3.30;3.10;;;27.00;41.80;;;;;;5013410;28;20430;-77
2023/06/08 05:37:52;;;;;;;3.83;3.13;;;27.10;42.00;;;;;;5008620;28;20532;-77
2023/06/08 05:40:24;;;;;;;6.13;3.23;;;27.10;41.80;;;;;;5010324;28;20472;-77
2023/06/08 05:42:52;;;;;;;5.27;3.70;;;27.10;41.80;;;;;;5012664;28;20452;-77
2023/06/08 05:45:20;;;;;;;7.00;3.43;;;27.10;41.90;;;;;;5009761;28;20453;-78
2023/06/08 05:47:48;;;;;;;9.10;3.20;;;27.10;41.70;;;;;;5013425;28;20447;-77
2023/06/08 05:50:17;;;;;;;4.87;3.47;;;27.10;41.90;;;;;;5013259;28;20441;-78
2023/06/08 05:52:45;;;;;;;5.63;3.57;;;27.10;41.80;;;;;;5011956;28;20530;-77
2023/06/08 05:55:13;;;;;;;3.57;3.13;;;27.10;41.80;;;;;;5007263;28;20532;-77
2023/06/08 05:57:42;;;;;;;4.13;3.47;;;27.10;41.90;;;;;;5010727;28;20437;-77
2023/06/08 06:00:12;;;;;;;3.40;3.10;;;27.10;41.90;;;;;;5011759;28;20415;-76
2023/06/08 06:02:40;;;;;;;3.43;3.13;;;27.10;41.80;;;;;;5009583;28;20615;-78
2023/06/08 06:05:10;;;;;;;4.67;3.47;;;27.10;41.70;;;;;;5012596;28;20419;-77
2023/06/08 06:07:38;;;;;;;5.53;3.80;;;27.10;41.80;;;;;;5012522;28;20448;-77
2023/06/08 06:10:07;;;;;;;3.93;3.50;;;27.10;41.70;;;;;;5012647;28;20509;-77
2023/06/08 06:12:36;;;;;;;3.20;3.00;;;27.20;41.70;;;;;;5002341;28;20490;-77
2023/06/08 06:15:06;;;;;;;5.70;3.50;;;27.10;41.70;;;;;;5011870;28;20444;-78
2023/06/08 06:17:34;;;;;;;3.87;3.23;;;27.10;41.60;;;;;;5008132;28;20452;-78
2023/06/08 06:20:05;;;;;;;4.60;3.57;;;27.10;41.60;;;;;;5008379;28;20439;-77
2023/06/08 06:22:34;;;;;;;3.83;3.40;;;27.10;41.60;;;;;;5004308;28;20451;-78
2023/06/08 06:25:01;;;;;;;3.67;3.37;;;27.10;41.80;;;;;;5003544;28;20446;-77
2023/06/08 06:27:29;;;;;;;3.50;3.20;;;27.10;41.80;;;;;;5004162;28;20570;-77
2023/06/08 06:29:57;;;;;;;3.60;3.17;;;27.10;41.60;;;;;;5007452;28;20447;-77
2023/06/08 06:32:27;;;;;;;5.00;3.70;;;27.20;41.60;;;;;;5004650;28;20474;-75
2023/06/08 06:34:56;;;;;;;4.70;3.37;;;27.20;41.70;;;;;;5011358;28;20448;-77
2023/06/08 06:37:23;;;;;;;3.80;3.50;;;27.20;41.60;;;;;;5000523;28;20552;-78
2023/06/08 06:39:52;;;;;;;3.10;2.80;;;27.20;41.60;;;;;;5008764;28;20446;-77
2023/06/08 06:42:20;;;;;;;3.70;3.40;;;27.20;41.60;;;;;;4995635;28;20930;-77
2023/06/08 06:44:48;;;;;;;4.83;3.63;;;27.20;41.60;;;;;;5007916;28;20498;-77
2023/06/08 06:47:16;;;;;;;3.50;3.20;;;27.20;41.60;;;;;;5001085;28;20474;-77
2023/06/08 06:49:45;;;;;;;4.27;3.30;;;27.30;41.60;;;;;;5007545;28;20444;-77
2023/06/08 06:52:13;;;;;;;3.73;3.43;;;27.30;41.40;;;;;;5002550;28;20515;-77
2023/06/08 06:54:41;;;;;;;3.67;3.37;;;27.30;41.50;;;;;;5012037;28;20871;-77
2023/06/08 06:57:10;;;;;;;3.90;3.50;;;27.40;41.30;;;;;;5010784;28;20515;-76
2023/06/08 06:59:38;;;;;;;3.63;3.33;;;27.40;41.40;;;;;;5008145;28;20469;-77
2023/06/08 07:02:07;;;;;;;4.57;3.30;;;27.40;41.40;;;;;;5011442;28;20811;-77
2023/06/08 07:04:35;;;;;;;4.20;3.23;;;27.50;41.30;;;;;;5011657;28;20460;-77
2023/06/08 07:07:05;;;;;;;4.00;3.30;;;27.50;41.30;;;;;;5010687;28;20476;-77
2023/06/08 07:09:33;;;;;;;5.20;3.33;;;27.50;41.20;;;;;;5005371;28;20563;-78
2023/06/08 07:12:01;;;;;;;3.70;3.50;;;27.50;41.20;;;;;;5011625;28;20427;-78
2023/06/08 07:14:42;;;;;;;3.33;3.03;;;27.50;41.30;;;;;;5011494;28;20477;-77
2023/06/08 07:17:11;;;;;;;5.83;3.50;;;27.60;41.20;;;;;;5009362;28;20453;-78
2023/06/08 07:19:40;;;;;;;6.10;3.40;;;27.60;41.10;;;;;;5004704;28;20531;-78
2023/06/08 07:22:10;;;;;;;5.40;3.27;;;27.70;41.20;;;;;;5011052;28;21053;-78
2023/06/08 07:24:58;;;;;;;5.60;3.40;;;27.70;41.10;;;;;;5003018;28;20433;-78
2023/06/08 07:27:46;;;;;;;4.03;3.63;;;27.70;41.00;;;;;;5008483;28;20425;-77
2023/06/08 07:30:14;;;;;;;5.03;3.23;;;27.80;41.10;;;;;;5005293;28;20466;-76
2023/06/08 07:32:43;;;;;;;3.30;3.10;;;27.80;41.00;;;;;;5010723;28;20462;-77
2023/06/08 07:35:11;;;;;;;3.40;3.10;;;27.90;41.00;;;;;;5003664;28;20436;-78
2023/06/08 07:37:40;;;;;;;4.97;2.97;;;27.90;40.80;;;;;;5004743;28;20465;-77
2023/06/08 07:40:08;;;;;;;3.93;3.17;;;28.00;41.00;;;;;;5008345;28;20563;-78
2023/06/08 07:42:36;;;;;;;3.33;3.03;;;28.00;40.80;;;;;;5010843;28;20474;-78
2023/06/08 07:45:05;;;;;;;6.53;3.43;;;28.10;40.80;;;;;;5000192;28;20478;-78
2023/06/08 07:47:34;;;;;;;5.33;3.43;;;28.10;40.80;;;;;;5010271;28;20494;-78
2023/06/08 07:50:05;;;;;;;3.77;3.23;;;28.10;40.80;;;;;;5010167;28;20459;-78
2023/06/08 07:52:33;;;;;;;3.87;3.40;;;28.20;40.80;;;;;;5004953;28;20431;-78
2023/06/08 07:55:02;;;;;;;4.17;3.50;;;28.20;40.80;;;;;;5010805;28;20519;-77
2023/06/08 07:57:31;;;;;;;5.13;3.70;;;28.30;40.70;;;;;;5005780;28;20461;-77
2023/06/08 07:59:58;;;;;;;5.00;3.50;;;28.30;40.60;;;;;;5007565;28;20479;-77
2023/06/08 08:02:26;;;;;;;8.63;4.17;;;28.40;40.80;;;;;;5004739;28;20575;-77
2023/06/08 08:04:54;;;;;;;5.80;4.07;;;28.40;40.60;;;;;;4998677;28;20450;-76
2023/06/08 08:07:22;;;;;;;9.90;4.07;;;28.40;40.70;;;;;;5011025;28;20419;-78
2023/06/08 08:09:50;;;;;;;16.07;4.60;;;28.40;40.70;;;;;;5004696;28;20511;-74
2023/06/08 08:12:19;;;;;;;16.53;4.97;;;28.50;40.70;;;;;;5007114;28;20828;-75
2023/06/08 08:14:47;;;;;;;17.23;4.47;;;28.50;40.70;;;;;;4996478;28;20523;-74
2023/06/08 08:17:15;;;;;;;13.10;5.00;;;28.40;40.20;;;;;;4999514;28;20512;-76
2023/06/08 08:19:43;;;;;;;16.83;4.77;;;28.40;40.20;;;;;;5005676;28;20515;-76
2023/06/08 08:22:12;;;;;;;18.13;4.83;;;28.40;40.00;;;;;;5004325;28;21006;-77
2023/06/08 08:24:42;;;;;;;11.27;4.43;;;28.40;39.80;;;;;;5003108;28;20441;-76
2023/06/08 08:27:10;;;;;;;15.50;4.37;;;28.40;39.60;;;;;;4992908;28;20841;-77
2023/06/08 08:29:40;;;;;;;14.70;5.20;;;28.40;39.90;;;;;;5004323;28;20441;-76
2023/06/08 08:32:08;;;;;;;13.27;4.60;;;28.40;39.20;;;;;;4995218;28;20496;-77
2023/06/08 08:34:36;;;;;;;14.33;4.90;;;28.40;39.00;;;;;;5006000;28;20504;-76
2023/06/08 08:37:04;;;;;;;11.80;4.73;;;28.40;39.00;;;;;;5002586;28;20444;-76
2023/06/08 08:39:32;;;;;;;10.90;4.67;;;28.40;39.00;;;;;;5003202;28;20481;-77
2023/06/08 08:42:03;;;;;;;14.63;4.47;;;28.40;38.70;;;;;;4998399;28;20538;-75
2023/06/08 08:44:32;;;;;;;13.73;4.60;;;28.40;38.60;;;;;;5007484;28;20578;-76
2023/06/08 08:47:04;;;;;;;11.97;4.60;;;28.50;38.60;;;;;;5005556;28;20431;-78
2023/06/08 08:49:36;;;;;;;11.47;5.10;;;28.50;38.70;;;;;;4999503;28;20419;-76
2023/06/08 08:52:08;;;;;;;12.20;5.00;;;28.50;38.50;;;;;;5009060;28;20468;-77
2023/06/08 08:54:38;;;;;;;10.70;4.67;;;28.50;38.30;;;;;;4991795;28;20424;-77
2023/06/08 08:57:08;;;;;;;14.43;4.63;;;28.40;38.00;;;;;;4996153;28;20456;-75
2023/06/08 08:59:37;;;;;;;15.47;5.40;;;28.50;38.00;;;;;;5003326;28;20436;-79
2023/06/08 09:02:07;;;;;;;8.00;4.10;;;28.50;38.00;;;;;;5003016;28;20455;-77
2023/06/08 09:04:35;;;;;;;17.40;4.90;;;28.70;38.20;;;;;;5011870;28;20917;-78
2023/06/08 09:07:04;;;;;;;12.07;4.40;;;28.80;38.40;;;;;;4998007;28;20512;-77
2023/06/08 09:09:32;;;;;;;20.53;4.63;;;29.00;38.20;;;;;;5013792;28;20484;-77
2023/06/08 09:12:00;;;;;;;19.20;4.60;;;29.10;38.10;;;;;;5005581;28;20461;-76
2023/06/08 09:14:29;;;;;;;7.50;4.10;;;29.30;38.10;;;;;;5005115;28;20444;-75
2023/06/08 09:16:58;;;;;;;15.93;4.50;;;29.40;38.00;;;;;;5013757;28;20524;-76
2023/06/08 09:19:29;;;;;;;10.40;4.53;;;29.50;38.00;;;;;;5013964;28;20441;-77
2023/06/08 09:21:57;;;;;;;17.77;4.57;;;29.60;37.90;;;;;;5013295;28;20430;-77
2023/06/08 09:24:25;;;;;;;10.00;4.33;;;29.70;37.80;;;;;;5008818;28;20448;-77
2023/06/08 09:26:55;;;;;;;9.50;4.40;;;29.70;37.60;;;;;;5010980;28;20448;-76
2023/06/08 09:29:36;;;;;;;14.93;4.30;;;29.80;37.50;;;;;;5012248;28;20492;-77
2023/06/08 09:32:04;;;;;;;7.90;3.57;;;29.90;37.50;;;;;;5012070;28;20450;-78
2023/06/08 09:34:49;;;;;;;13.83;3.80;;;29.90;37.30;;;;;;5014012;28;20439;-77
2023/06/08 09:37:18;;;;;;;13.83;3.90;;;30.00;37.20;;;;;;5006033;28;20527;-78
2023/06/08 09:39:46;;;;;;;8.33;3.90;;;30.00;37.20;;;;;;5013553;28;20440;-77
2023/06/08 09:42:15;;;;;;;9.30;4.33;;;30.20;37.20;;;;;;5013310;28;20467;-78
2023/06/08 09:44:43;;;;;;;9.73;3.83;;;30.20;37.10;;;;;;5013559;28;20454;-77
2023/06/08 09:47:22;;;;;;;11.73;4.57;;;30.20;37.00;;;;;;5010837;28;21010;-77
2023/06/08 09:49:53;;;;;;;10.43;4.17;;;30.40;37.00;;;;;;5013252;28;20448;-75
2023/06/08 09:52:22;;;;;;;11.37;3.90;;;30.40;36.90;;;;;;5013163;28;20527;-78
2023/06/08 09:54:50;;;;;;;10.77;4.00;;;30.40;36.80;;;;;;5013125;28;20423;-77
2023/06/08 09:57:20;;;;;;;7.00;4.17;;;30.50;36.80;;;;;;5013107;28;20956;-78
2023/06/08 09:59:51;;;;;;;5.27;3.67;;;30.60;36.70;;;;;;5008705;28;20463;-77
2023/06/08 10:02:22;;;;;;;8.07;3.40;;;30.60;36.60;;;;;;5009254;28;20534;-78
2023/06/08 10:04:53;;;;;;;5.83;3.40;;;30.70;36.50;;;;;;5005062;28;20444;-77
2023/06/08 10:07:24;;;;;;;10.17;4.47;;;30.80;36.50;;;;;;5000814;28;20460;-76
2023/06/08 10:09:55;;;;;;;9.30;4.10;;;30.80;36.40;;;;;;5001413;28;20507;-77
2023/06/08 10:12:23;;;;;;;4.83;3.50;;;30.90;36.30;;;;;;4993371;28;20483;-77
2023/06/08 10:14:51;;;;;;;6.87;3.87;;;31.00;36.30;;;;;;5001964;28;20503;-77
2023/06/08 10:17:19;;;;;;;4.30;3.30;;;31.00;36.20;;;;;;5010690;28;20488;-78
2023/06/08 10:19:47;;;;;;;5.17;3.43;;;31.10;36.10;;;;;;5008216;28;20448;-77
2023/06/08 10:22:17;;;;;;;5.33;3.70;;;31.10;36.00;;;;;;5005134;28;20441;-78
2023/06/08 10:24:46;;;;;;;5.30;3.50;;;31.20;35.90;;;;;;5012630;28;21070;-77
2023/06/08 10:27:35;;;;;;;7.40;3.80;;;31.30;35.80;;;;;;5007478;28;20441;-75
2023/06/08 10:30:05;;;;;;;7.63;3.70;;;31.30;35.70;;;;;;5005067;28;20428;-75
2023/06/08 10:32:34;;;;;;;4.30;3.27;;;31.40;35.70;;;;;;5005417;28;20465;-77
2023/06/08 10:35:05;;;;;;;6.50;3.30;;;31.50;35.60;;;;;;5005049;28;20819;-77
2023/06/08 10:37:36;;;;;;;5.17;2.80;;;31.60;35.50;;;;;;5006608;28;20653;-78
2023/06/08 10:40:08;;;;;;;4.20;3.53;;;31.60;35.40;;;;;;5002882;28;20460;-77
2023/06/08 10:42:36;;;;;;;6.77;3.70;;;31.70;35.30;;;;;;5012120;28;20460;-77
2023/06/08 10:45:05;;;;;;;3.77;3.13;;;31.80;35.20;;;;;;5011134;28;20479;-75
2023/06/08 10:47:36;;;;;;;8.93;3.23;;;31.90;35.20;;;;;;5000662;28;20445;-77
2023/06/08 10:50:09;;;;;;;4.07;3.00;;;31.90;35.00;;;;;;5001775;28;20457;-76
2023/06/08 10:52:43;;;;;;;6.67;3.30;;;32.00;35.00;;;;;;5012140;28;20469;-78
2023/06/08 10:55:13;;;;;;;3.63;3.30;;;32.10;35.00;;;;;;5012502;28;20464;-78
2023/06/08 10:57:42;;;;;;;4.53;3.20;;;32.20;34.80;;;;;;5005218;28;20456;-76
2023/06/08 11:00:42;;;;;;;4.80;3.07;;;32.20;34.60;;;;;;5010615;28;20468;-76
2023/06/08 11:03:12;;;;;;;6.47;3.10;;;32.30;34.50;;;;;;5003621;28;20548;-77
2023/06/08 11:05:43;;;;;;;4.90;3.30;;;32.40;34.50;;;;;;5003775;28;20448;-77
2023/06/08 11:08:12;;;;;;;3.73;2.80;;;32.50;34.40;;;;;;5003654;28;20460;-77
2023/06/08 11:10:40;;;;;;;3.10;2.90;;;32.60;34.30;;;;;;5012367;28;20475;-78
2023/06/08 11:13:09;;;;;;;5.87;3.23;;;32.60;34.00;;;;;;5012782;28;20452;-79
2023/06/08 11:15:38;;;;;;;5.60;2.90;;;32.60;34.00;;;;;;5011022;28;20491;-79
2023/06/08 11:18:08;;;;;;;5.73;2.93;;;32.90;34.10;;;;;;5012694;28;20463;-80
2023/06/08 11:20:38;;;;;;;5.50;3.20;;;33.60;33.30;;;;;;5013519;28;20451;-80
2023/06/08 11:23:10;;;;;;;7.77;2.70;;;34.40;32.50;;;;;;5007763;28;20505;-79
2023/06/08 11:25:40;;;;;;;8.43;2.90;;;35.20;31.30;;;;;;5003345;28;20475;-79
2023/06/08 11:28:08;;;;;;;3.30;2.80;;;35.80;30.40;;;;;;5006451;28;20444;-80
2023/06/08 11:30:37;;;;;;;7.00;2.50;;;36.40;29.80;;;;;;5004546;28;20520;-78
2023/06/08 11:33:05;;;;;;;3.70;2.63;;;37.00;29.30;;;;;;5001739;28;20492;-79
2023/06/08 11:35:33;;;;;;;3.77;2.90;;;37.50;29.10;;;;;;5002581;28;20491;-80
2023/06/08 11:38:02;;;;;;;4.50;2.73;;;37.90;28.40;;;;;;5004541;28;20904;-80
2023/06/08 11:40:33;;;;;;;7.07;2.93;;;38.30;28.20;;;;;;5002386;28;20495;-79
2023/06/08 11:43:03;;;;;;;5.03;2.60;;;38.60;27.90;;;;;;5001858;28;21093;-78
2023/06/08 11:45:31;;;;;;;8.10;2.57;;;38.80;27.60;;;;;;5005621;28;20444;-79
2023/06/08 11:48:00;;;;;;;2.60;2.50;;;39.00;27.70;;;;;;5003858;28;20446;-81
2023/06/08 11:50:48;;;;;;;5.13;2.50;;;39.20;27.40;;;;;;5008869;28;20532;-80
2023/06/08 11:53:22;;;;;;;3.10;2.80;;;39.20;27.30;;;;;;5008422;28;20468;-79
2023/06/08 11:55:52;;;;;;;2.63;2.43;;;39.10;27.20;;;;;;5008876;28;20453;-80
2023/06/08 11:58:25;;;;;;;4.30;2.67;;;39.00;27.30;;;;;;5004135;28;20456;-80
2023/06/08 12:01:04;;;;;;;2.37;2.27;;;38.80;27.40;;;;;;5004784;28;20457;-80
2023/06/08 12:03:34;;;;;;;4.23;2.53;;;38.60;27.60;;;;;;5010171;28;20463;-80
2023/06/08 12:06:03;;;;;;;3.53;2.53;;;38.50;27.70;;;;;;5009590;28;20479;-80
2023/06/08 12:08:31;;;;;;;5.53;2.23;;;38.40;28.00;;;;;;5003234;28;20475;-81
2023/06/08 12:11:05;;;;;;;3.60;2.77;;;38.30;28.00;;;;;;5000420;28;20444;-79
2023/06/08 12:13:34;;;;;;;2.87;2.63;;;38.10;28.10;;;;;;5007598;28;20473;-79
2023/06/08 12:16:06;;;;;;;3.40;2.53;;;38.00;28.20;;;;;;5005505;28;20453;-79
2023/06/08 12:18:37;;;;;;;2.57;2.20;;;37.80;28.30;;;;;;5000658;28;20460;-80
2023/06/08 12:21:06;;;;;;;2.53;2.33;;;37.60;28.50;;;;;;5002161;28;20457;-80
2023/06/08 12:23:35;;;;;;;3.77;2.50;;;37.50;28.60;;;;;;5001872;28;20450;-80
2023/06/08 12:26:03;;;;;;;2.93;2.70;;;37.40;28.70;;;;;;4999396;28;20440;-80
2023/06/08 12:28:32;;;;;;;2.63;2.20;;;37.20;28.80;;;;;;5005824;28;20454;-80
2023/06/08 12:31:01;;;;;;;3.63;2.33;;;37.00;29.10;;;;;;5011025;28;20447;-80
2023/06/08 12:33:30;;;;;;;4.40;2.60;;;36.70;29.40;;;;;;5005013;28;20570;-78
2023/06/08 12:35:58;;;;;;;3.30;2.40;;;36.50;29.50;;;;;;5000220;28;20446;-79
2023/06/08 12:38:26;;;;;;;3.27;2.50;;;36.20;29.90;;;;;;4999912;28;20453;-80
2023/06/08 12:40:56;;;;;;;2.63;2.43;;;36.00;30.10;;;;;;5008124;28;20449;-80
2023/06/08 12:43:24;;;;;;;3.37;2.80;;;35.70;30.20;;;;;;5005960;28;20847;-80
2023/06/08 12:45:53;;;;;;;2.63;2.43;;;35.50;30.50;;;;;;5001565;28;20488;-80
2023/06/08 12:48:23;;;;;;;10.40;3.60;;;35.40;30.90;;;;;;5014557;28;20442;-80
2023/06/08 12:50:51;;;;;;;4.40;2.80;;;35.30;31.20;;;;;;5013009;28;20507;-80
2023/06/08 12:53:19;;;;;;;8.57;2.80;;;35.20;31.20;;;;;;5015944;28;20487;-79
2023/06/08 12:55:49;;;;;;;4.10;2.97;;;35.10;31.40;;;;;;5021047;28;20443;-80
2023/06/08 12:58:17;;;;;;;9.83;3.37;;;35.10;31.60;;;;;;5020740;28;20444;-79
2023/06/08 13:00:46;;;;;;;15.83;2.90;;;35.00;31.60;;;;;;5018749;28;20448;-80